sensor_id;sensor_type;location;lat;lon;timestamp;P1;durP1;ratioP1;P2;durP2;ratioP2
12908;SDS011;6522;49.622;6.126;2022-08-01T00:00:01;8.00;;;7.40;;
12908;SDS011;6522;49.622;6.126;2022-08-01T00:02:47;6.20;;;5.70;;
12908;SDS011;6522;49.622;6.126;2022-08-01T00:05:34;6.75;;;6.05;;
12908;SDS011;6522;49.622;6.126;2022-08-01T00:08:21;7.20;;;6.73;;
12908;SDS011;6522;49.622;6.126;2022-08-01T00:11:08;6.70;;;5.70;;
12908;SDS011;6522;49.622;6.126;2022-08-01T00:13:55;6.20;;;5.70;;
12908;SDS011;6522;49.622;6.126;2022-08-01T00:16:41;7.90;;;7.40;;
12908;SDS011;6522;49.622;6.126;2022-08-01T00:19:28;5.93;;;5.33;;
12908;SDS011;6522;49.622;6.126;2022-08-01T00:22:15;5.80;;;5.30;;
12908;SDS011;6522;49.622;6.126;2022-08-01T00:25:02;5.80;;;5.40;;
12908;SDS011;6522;49.622;6.126;2022-08-01T00:27:48;5.80;;;5.30;;
12908;SDS011;6522;49.622;6.126;2022-08-01T00:30:35;5.60;;;5.10;;
12908;SDS011;6522;49.622;6.126;2022-08-01T00:33:22;6.07;;;5.63;;
12908;SDS011;6522;49.622;6.126;2022-08-01T00:36:08;5.20;;;4.70;;
12908;SDS011;6522;49.622;6.126;2022-08-01T00:38:55;4.90;;;4.50;;
12908;SDS011;6522;49.622;6.126;2022-08-01T00:41:42;6.47;;;5.97;;
12908;SDS011;6522;49.622;6.126;2022-08-01T00:44:28;4.75;;;4.35;;
12908;SDS011;6522;49.622;6.126;2022-08-01T00:47:15;5.00;;;4.60;;
12908;SDS011;6522;49.622;6.126;2022-08-01T00:50:03;5.35;;;4.85;;
12908;SDS011;6522;49.622;6.126;2022-08-01T00:52:49;5.40;;;4.90;;
12908;SDS011;6522;49.622;6.126;2022-08-01T00:55:35;5.53;;;5.13;;
12908;SDS011;6522;49.622;6.126;2022-08-01T00:58:22;4.90;;;4.40;;
12908;SDS011;6522;49.622;6.126;2022-08-01T01:01:09;4.40;;;4.00;;
12908;SDS011;6522;49.622;6.126;2022-08-01T01:03:56;6.00;;;5.50;;
12908;SDS011;6522;49.622;6.126;2022-08-01T01:06:48;4.90;;;4.40;;
12908;SDS011;6522;49.622;6.126;2022-08-01T01:09:46;5.87;;;5.37;;
12908;SDS011;6522;49.622;6.126;2022-08-01T01:12:35;4.70;;;3.80;;
12908;SDS011;6522;49.622;6.126;2022-08-01T01:15:26;4.23;;;3.83;;
12908;SDS011;6522;49.622;6.126;2022-08-01T01:18:17;5.63;;;5.13;;
12908;SDS011;6522;49.622;6.126;2022-08-01T01:21:49;4.40;;;4.00;;
12908;SDS011;6522;49.622;6.126;2022-08-01T01:23:57;4.30;;;3.90;;
12908;SDS011;6522;49.622;6.126;2022-08-01T01:29:51;4.30;;;3.90;;
12908;SDS011;6522;49.622;6.126;2022-08-01T01:32:38;4.40;;;3.78;;
12908;SDS011;6522;49.622;6.126;2022-08-01T01:35:24;5.80;;;5.30;;
12908;SDS011;6522;49.622;6.126;2022-08-01T01:38:12;5.70;;;4.28;;
12908;SDS011;6522;49.622;6.126;2022-08-01T01:40:57;5.10;;;3.63;;
12908;SDS011;6522;49.622;6.126;2022-08-01T01:43:43;5.40;;;4.90;;
12908;SDS011;6522;49.622;6.126;2022-08-01T01:46:30;3.90;;;3.60;;
12908;SDS011;6522;49.622;6.126;2022-08-01T01:49:19;4.60;;;3.97;;
12908;SDS011;6522;49.622;6.126;2022-08-01T01:52:04;4.10;;;3.70;;
12908;SDS011;6522;49.622;6.126;2022-08-01T01:54:51;4.83;;;4.43;;
12908;SDS011;6522;49.622;6.126;2022-08-01T01:57:41;4.40;;;3.90;;
12908;SDS011;6522;49.622;6.126;2022-08-01T02:00:25;4.62;;;4.10;;
12908;SDS011;6522;49.622;6.126;2022-08-01T02:03:12;4.43;;;3.70;;
12908;SDS011;6522;49.622;6.126;2022-08-01T02:05:59;4.97;;;4.57;;
12908;SDS011;6522;49.622;6.126;2022-08-01T02:08:46;4.78;;;3.50;;
12908;SDS011;6522;49.622;6.126;2022-08-01T02:11:33;7.15;;;3.60;;
12908;SDS011;6522;49.622;6.126;2022-08-01T02:14:19;4.77;;;4.37;;
12908;SDS011;6522;49.622;6.126;2022-08-01T02:17:06;3.75;;;3.30;;
12908;SDS011;6522;49.622;6.126;2022-08-01T02:19:53;4.25;;;3.25;;
12908;SDS011;6522;49.622;6.126;2022-08-01T02:22:47;4.10;;;3.37;;
12908;SDS011;6522;49.622;6.126;2022-08-01T02:25:39;4.70;;;4.27;;
12908;SDS011;6522;49.622;6.126;2022-08-01T02:28:26;4.10;;;3.30;;
12908;SDS011;6522;49.622;6.126;2022-08-01T02:31:12;3.83;;;3.35;;
12908;SDS011;6522;49.622;6.126;2022-08-01T02:34:03;4.07;;;3.73;;
12908;SDS011;6522;49.622;6.126;2022-08-01T02:36:48;4.55;;;3.08;;
12908;SDS011;6522;49.622;6.126;2022-08-01T02:39:36;4.05;;;3.00;;
12908;SDS011;6522;49.622;6.126;2022-08-01T02:42:22;4.23;;;3.80;;
12908;SDS011;6522;49.622;6.126;2022-08-01T02:45:09;5.70;;;3.20;;
12908;SDS011;6522;49.622;6.126;2022-08-01T02:47:57;6.80;;;6.20;;
12908;SDS011;6522;49.622;6.126;2022-08-01T02:50:43;3.75;;;3.10;;
12908;SDS011;6522;49.622;6.126;2022-08-01T02:53:31;3.90;;;3.00;;
12908;SDS011;6522;49.622;6.126;2022-08-01T02:56:16;4.10;;;3.53;;
12908;SDS011;6522;49.622;6.126;2022-08-01T02:59:07;3.67;;;2.72;;
12908;SDS011;6522;49.622;6.126;2022-08-01T03:01:56;4.20;;;3.10;;
12908;SDS011;6522;49.622;6.126;2022-08-01T03:04:42;4.40;;;4.00;;
12908;SDS011;6522;49.622;6.126;2022-08-01T03:07:29;3.80;;;3.40;;
12908;SDS011;6522;49.622;6.126;2022-08-01T03:10:15;4.07;;;3.50;;
12908;SDS011;6522;49.622;6.126;2022-08-01T03:13:03;3.90;;;3.30;;
12908;SDS011;6522;49.622;6.126;2022-08-01T03:15:49;4.53;;;3.50;;
12908;SDS011;6522;49.622;6.126;2022-08-01T03:18:36;3.67;;;3.33;;
12908;SDS011;6522;49.622;6.126;2022-08-01T03:21:23;4.12;;;3.20;;
12908;SDS011;6522;49.622;6.126;2022-08-01T03:24:09;3.50;;;2.70;;
12908;SDS011;6522;49.622;6.126;2022-08-01T03:26:56;5.20;;;2.93;;
12908;SDS011;6522;49.622;6.126;2022-08-01T03:29:43;4.80;;;3.50;;
12908;SDS011;6522;49.622;6.126;2022-08-01T03:32:30;3.20;;;2.87;;
12908;SDS011;6522;49.622;6.126;2022-08-01T03:35:16;4.50;;;2.50;;
12908;SDS011;6522;49.622;6.126;2022-08-01T03:38:03;4.20;;;3.33;;
12908;SDS011;6522;49.622;6.126;2022-08-01T03:40:55;3.60;;;2.75;;
12908;SDS011;6522;49.622;6.126;2022-08-01T03:44:00;4.97;;;2.85;;
12908;SDS011;6522;49.622;6.126;2022-08-01T03:46:46;3.35;;;2.75;;
12908;SDS011;6522;49.622;6.126;2022-08-01T03:49:33;3.28;;;2.75;;
12908;SDS011;6522;49.622;6.126;2022-08-01T03:52:19;4.72;;;2.72;;
12908;SDS011;6522;49.622;6.126;2022-08-01T03:55:06;3.65;;;2.30;;
12908;SDS011;6522;49.622;6.126;2022-08-01T03:57:53;3.47;;;3.12;;
12908;SDS011;6522;49.622;6.126;2022-08-01T04:00:39;4.47;;;2.75;;
12908;SDS011;6522;49.622;6.126;2022-08-01T04:03:26;3.20;;;2.58;;
12908;SDS011;6522;49.622;6.126;2022-08-01T04:06:12;2.70;;;2.12;;
12908;SDS011;6522;49.622;6.126;2022-08-01T04:08:59;3.70;;;3.10;;
12908;SDS011;6522;49.622;6.126;2022-08-01T04:11:46;3.00;;;2.37;;
12908;SDS011;6522;49.622;6.126;2022-08-01T04:14:33;4.30;;;2.30;;
12908;SDS011;6522;49.622;6.126;2022-08-01T04:17:20;3.17;;;2.33;;
12908;SDS011;6522;49.622;6.126;2022-08-01T04:20:07;3.20;;;2.40;;
12908;SDS011;6522;49.622;6.126;2022-08-01T04:22:54;3.37;;;2.60;;
12908;SDS011;6522;49.622;6.126;2022-08-01T04:25:40;3.22;;;2.22;;
12908;SDS011;6522;49.622;6.126;2022-08-01T04:28:27;4.25;;;2.30;;
12908;SDS011;6522;49.622;6.126;2022-08-01T04:31:14;3.00;;;2.12;;
12908;SDS011;6522;49.622;6.126;2022-08-01T04:34:02;4.25;;;2.75;;
12908;SDS011;6522;49.622;6.126;2022-08-01T04:36:47;3.53;;;2.58;;
12908;SDS011;6522;49.622;6.126;2022-08-01T04:39:34;2.90;;;2.40;;
12908;SDS011;6522;49.622;6.126;2022-08-01T04:42:21;4.78;;;2.45;;
12908;SDS011;6522;49.622;6.126;2022-08-01T04:45:08;3.15;;;2.80;;
12908;SDS011;6522;49.622;6.126;2022-08-01T04:47:54;6.05;;;2.35;;
12908;SDS011;6522;49.622;6.126;2022-08-01T04:50:41;3.25;;;2.45;;
12908;SDS011;6522;49.622;6.126;2022-08-01T04:53:28;2.60;;;2.10;;
12908;SDS011;6522;49.622;6.126;2022-08-01T04:56:15;3.90;;;2.30;;
12908;SDS011;6522;49.622;6.126;2022-08-01T04:59:01;3.50;;;2.40;;
12908;SDS011;6522;49.622;6.126;2022-08-01T05:02:07;3.70;;;2.78;;
12908;SDS011;6522;49.622;6.126;2022-08-01T05:04:53;3.35;;;2.35;;
12908;SDS011;6522;49.622;6.126;2022-08-01T05:07:40;3.08;;;2.45;;
12908;SDS011;6522;49.622;6.126;2022-08-01T05:10:27;3.50;;;2.70;;
12908;SDS011;6522;49.622;6.126;2022-08-01T05:13:14;3.92;;;2.70;;
12908;SDS011;6522;49.622;6.126;2022-08-01T05:16:01;3.22;;;2.42;;
12908;SDS011;6522;49.622;6.126;2022-08-01T05:18:47;3.28;;;2.10;;
12908;SDS011;6522;49.622;6.126;2022-08-01T05:21:34;3.62;;;2.60;;
12908;SDS011;6522;49.622;6.126;2022-08-01T05:24:21;3.00;;;2.70;;
12908;SDS011;6522;49.622;6.126;2022-08-01T05:27:08;3.20;;;2.90;;
12908;SDS011;6522;49.622;6.126;2022-08-01T05:29:55;3.37;;;2.22;;
12908;SDS011;6522;49.622;6.126;2022-08-01T05:32:42;3.20;;;2.90;;
12908;SDS011;6522;49.622;6.126;2022-08-01T05:35:28;2.90;;;2.50;;
12908;SDS011;6522;49.622;6.126;2022-08-01T05:38:15;3.70;;;3.30;;
12908;SDS011;6522;49.622;6.126;2022-08-01T05:41:02;4.87;;;4.40;;
12908;SDS011;6522;49.622;6.126;2022-08-01T05:43:48;3.90;;;3.50;;
12908;SDS011;6522;49.622;6.126;2022-08-01T05:46:35;3.78;;;3.37;;
12908;SDS011;6522;49.622;6.126;2022-08-01T05:49:22;5.07;;;4.57;;
12908;SDS011;6522;49.622;6.126;2022-08-01T05:52:09;4.20;;;3.80;;
12908;SDS011;6522;49.622;6.126;2022-08-01T05:54:56;4.90;;;4.03;;
12908;SDS011;6522;49.622;6.126;2022-08-01T05:57:43;5.40;;;5.00;;
12908;SDS011;6522;49.622;6.126;2022-08-01T06:00:29;4.07;;;3.73;;
12908;SDS011;6522;49.622;6.126;2022-08-01T06:03:16;4.20;;;3.60;;
12908;SDS011;6522;49.622;6.126;2022-08-01T06:06:03;5.87;;;5.37;;
12908;SDS011;6522;49.622;6.126;2022-08-01T06:08:49;4.57;;;4.18;;
12908;SDS011;6522;49.622;6.126;2022-08-01T06:11:36;4.35;;;3.95;;
12908;SDS011;6522;49.622;6.126;2022-08-01T06:14:23;5.73;;;5.33;;
12908;SDS011;6522;49.622;6.126;2022-08-01T06:17:09;4.60;;;4.20;;
12908;SDS011;6522;49.622;6.126;2022-08-01T06:19:56;4.65;;;4.25;;
12908;SDS011;6522;49.622;6.126;2022-08-01T06:22:43;5.67;;;5.03;;
12908;SDS011;6522;49.622;6.126;2022-08-01T06:25:29;4.40;;;4.00;;
12908;SDS011;6522;49.622;6.126;2022-08-01T06:28:16;4.80;;;4.40;;
12908;SDS011;6522;49.622;6.126;2022-08-01T06:31:03;5.20;;;4.70;;
12908;SDS011;6522;49.622;6.126;2022-08-01T06:33:50;6.23;;;5.83;;
12908;SDS011;6522;49.622;6.126;2022-08-01T06:36:36;5.70;;;5.20;;
12908;SDS011;6522;49.622;6.126;2022-08-01T06:39:23;6.40;;;5.80;;
12908;SDS011;6522;49.622;6.126;2022-08-01T06:42:10;7.00;;;6.50;;
12908;SDS011;6522;49.622;6.126;2022-08-01T06:44:57;5.60;;;5.18;;
12908;SDS011;6522;49.622;6.126;2022-08-01T06:47:44;6.18;;;5.70;;
12908;SDS011;6522;49.622;6.126;2022-08-01T06:50:30;7.60;;;7.10;;
12908;SDS011;6522;49.622;6.126;2022-08-01T06:53:17;6.30;;;5.70;;
12908;SDS011;6522;49.622;6.126;2022-08-01T06:56:04;6.87;;;6.37;;
12908;SDS011;6522;49.622;6.126;2022-08-01T06:58:50;7.37;;;6.97;;
12908;SDS011;6522;49.622;6.126;2022-08-01T07:01:37;6.10;;;5.60;;
12908;SDS011;6522;49.622;6.126;2022-08-01T07:04:23;6.87;;;6.47;;
12908;SDS011;6522;49.622;6.126;2022-08-01T07:07:10;8.90;;;8.20;;
12908;SDS011;6522;49.622;6.126;2022-08-01T07:09:57;7.30;;;6.70;;
12908;SDS011;6522;49.622;6.126;2022-08-01T07:12:43;7.37;;;6.87;;
12908;SDS011;6522;49.622;6.126;2022-08-01T07:15:30;9.03;;;8.53;;
12908;SDS011;6522;49.622;6.126;2022-08-01T07:18:17;7.90;;;7.30;;
12908;SDS011;6522;49.622;6.126;2022-08-01T07:21:04;9.73;;;8.93;;
12908;SDS011;6522;49.622;6.126;2022-08-01T07:23:50;8.10;;;7.50;;
12908;SDS011;6522;49.622;6.126;2022-08-01T07:26:37;9.67;;;9.17;;
12908;SDS011;6522;49.622;6.126;2022-08-01T07:29:24;8.38;;;7.78;;
12908;SDS011;6522;49.622;6.126;2022-08-01T07:32:11;9.50;;;9.00;;
12908;SDS011;6522;49.622;6.126;2022-08-01T07:34:57;8.20;;;7.70;;
12908;SDS011;6522;49.622;6.126;2022-08-01T07:37:44;9.30;;;8.80;;
12908;SDS011;6522;49.622;6.126;2022-08-01T07:40:31;8.55;;;7.90;;
12908;SDS011;6522;49.622;6.126;2022-08-01T07:43:18;10.43;;;9.93;;
12908;SDS011;6522;49.622;6.126;2022-08-01T07:46:05;10.83;;;10.30;;
12908;SDS011;6522;49.622;6.126;2022-08-01T07:48:52;11.10;;;10.40;;
12908;SDS011;6522;49.622;6.126;2022-08-01T07:51:38;12.00;;;11.23;;
12908;SDS011;6522;49.622;6.126;2022-08-01T07:54:26;10.83;;;10.33;;
12908;SDS011;6522;49.622;6.126;2022-08-01T07:57:12;11.23;;;10.63;;
12908;SDS011;6522;49.622;6.126;2022-08-01T08:00:00;11.57;;;10.97;;
12908;SDS011;6522;49.622;6.126;2022-08-01T08:02:46;12.33;;;11.43;;
12908;SDS011;6522;49.622;6.126;2022-08-01T08:05:33;11.70;;;11.10;;
12908;SDS011;6522;49.622;6.126;2022-08-01T08:08:20;11.90;;;11.30;;
12908;SDS011;6522;49.622;6.126;2022-08-01T08:11:07;10.70;;;10.13;;
12908;SDS011;6522;49.622;6.126;2022-08-01T08:13:53;10.83;;;10.23;;
12908;SDS011;6522;49.622;6.126;2022-08-01T08:16:41;8.55;;;7.95;;
12908;SDS011;6522;49.622;6.126;2022-08-01T08:19:28;10.20;;;9.70;;
12908;SDS011;6522;49.622;6.126;2022-08-01T08:22:15;8.90;;;8.40;;
12908;SDS011;6522;49.622;6.126;2022-08-01T08:25:02;11.70;;;10.90;;
12908;SDS011;6522;49.622;6.126;2022-08-01T08:27:49;11.43;;;10.83;;
12908;SDS011;6522;49.622;6.126;2022-08-01T08:30:36;12.00;;;11.40;;
12908;SDS011;6522;49.622;6.126;2022-08-01T08:33:22;11.10;;;10.60;;
12908;SDS011;6522;49.622;6.126;2022-08-01T08:36:09;12.63;;;11.90;;
12908;SDS011;6522;49.622;6.126;2022-08-01T08:38:56;11.97;;;11.37;;
12908;SDS011;6522;49.622;6.126;2022-08-01T08:41:43;10.55;;;10.00;;
12908;SDS011;6522;49.622;6.126;2022-08-01T08:44:29;11.80;;;11.10;;
12908;SDS011;6522;49.622;6.126;2022-08-01T08:47:16;12.43;;;11.67;;
12908;SDS011;6522;49.622;6.126;2022-08-01T08:50:03;12.50;;;11.80;;
12908;SDS011;6522;49.622;6.126;2022-08-01T08:52:50;12.80;;;12.20;;
12908;SDS011;6522;49.622;6.126;2022-08-01T08:55:37;12.27;;;11.67;;
12908;SDS011;6522;49.622;6.126;2022-08-01T08:58:25;12.50;;;11.80;;
12908;SDS011;6522;49.622;6.126;2022-08-01T09:01:11;11.37;;;10.80;;
12908;SDS011;6522;49.622;6.126;2022-08-01T09:03:57;12.03;;;11.43;;
12908;SDS011;6522;49.622;6.126;2022-08-01T09:06:44;9.45;;;8.95;;
12908;SDS011;6522;49.622;6.126;2022-08-01T09:09:31;9.75;;;9.15;;
12908;SDS011;6522;49.622;6.126;2022-08-01T09:12:18;11.40;;;10.80;;
12908;SDS011;6522;49.622;6.126;2022-08-01T09:15:05;12.40;;;11.60;;
12908;SDS011;6522;49.622;6.126;2022-08-01T09:17:52;11.00;;;10.50;;
12908;SDS011;6522;49.622;6.126;2022-08-01T09:20:39;9.55;;;9.00;;
12908;SDS011;6522;49.622;6.126;2022-08-01T09:23:32;11.77;;;11.07;;
12908;SDS011;6522;49.622;6.126;2022-08-01T09:26:20;11.70;;;11.10;;
12908;SDS011;6522;49.622;6.126;2022-08-01T09:29:06;10.73;;;10.23;;
12908;SDS011;6522;49.622;6.126;2022-08-01T09:31:53;9.30;;;8.70;;
12908;SDS011;6522;49.622;6.126;2022-08-01T09:34:39;11.70;;;11.00;;
12908;SDS011;6522;49.622;6.126;2022-08-01T09:37:32;9.70;;;9.20;;
12908;SDS011;6522;49.622;6.126;2022-08-01T09:40:18;11.80;;;11.20;;
12908;SDS011;6522;49.622;6.126;2022-08-01T09:43:11;11.57;;;10.97;;
12908;SDS011;6522;49.622;6.126;2022-08-01T09:45:58;9.13;;;8.60;;
12908;SDS011;6522;49.622;6.126;2022-08-01T09:49:04;9.75;;;9.10;;
12908;SDS011;6522;49.622;6.126;2022-08-01T09:51:47;9.80;;;9.20;;
12908;SDS011;6522;49.622;6.126;2022-08-01T09:54:33;11.87;;;11.27;;
12908;SDS011;6522;49.622;6.126;2022-08-01T09:57:20;11.40;;;10.80;;
12908;SDS011;6522;49.622;6.126;2022-08-01T10:00:16;11.57;;;10.97;;
12908;SDS011;6522;49.622;6.126;2022-08-01T10:02:53;11.27;;;10.67;;
12908;SDS011;6522;49.622;6.126;2022-08-01T10:05:40;9.33;;;8.80;;
12908;SDS011;6522;49.622;6.126;2022-08-01T10:08:27;11.00;;;10.50;;
12908;SDS011;6522;49.622;6.126;2022-08-01T10:11:14;10.50;;;10.00;;
12908;SDS011;6522;49.622;6.126;2022-08-01T10:14:01;9.30;;;8.80;;
12908;SDS011;6522;49.622;6.126;2022-08-01T10:16:48;11.57;;;11.00;;
12908;SDS011;6522;49.622;6.126;2022-08-01T10:19:35;9.50;;;8.90;;
12908;SDS011;6522;49.622;6.126;2022-08-01T10:22:22;10.97;;;10.40;;
12908;SDS011;6522;49.622;6.126;2022-08-01T10:25:08;9.43;;;8.93;;
12908;SDS011;6522;49.622;6.126;2022-08-01T10:27:55;11.00;;;10.40;;
12908;SDS011;6522;49.622;6.126;2022-08-01T10:30:42;11.87;;;11.27;;
12908;SDS011;6522;49.622;6.126;2022-08-01T10:33:29;10.10;;;9.50;;
12908;SDS011;6522;49.622;6.126;2022-08-01T10:36:17;11.80;;;11.10;;
12908;SDS011;6522;49.622;6.126;2022-08-01T10:39:03;12.17;;;11.30;;
12908;SDS011;6522;49.622;6.126;2022-08-01T10:41:50;12.20;;;11.60;;
12908;SDS011;6522;49.622;6.126;2022-08-01T10:44:36;10.85;;;10.25;;
12908;SDS011;6522;49.622;6.126;2022-08-01T10:47:25;12.47;;;11.60;;
12908;SDS011;6522;49.622;6.126;2022-08-01T10:50:15;12.20;;;11.60;;
12908;SDS011;6522;49.622;6.126;2022-08-01T10:53:05;12.70;;;12.00;;
12908;SDS011;6522;49.622;6.126;2022-08-01T10:58:41;11.00;;;10.50;;
12908;SDS011;6522;49.622;6.126;2022-08-01T11:01:28;10.97;;;10.37;;
12908;SDS011;6522;49.622;6.126;2022-08-01T11:04:13;9.30;;;8.80;;
12908;SDS011;6522;49.622;6.126;2022-08-01T11:07:07;8.82;;;8.32;;
12908;SDS011;6522;49.622;6.126;2022-08-01T11:12:55;9.90;;;9.15;;
12908;SDS011;6522;49.622;6.126;2022-08-01T11:15:41;11.30;;;10.80;;
12908;SDS011;6522;49.622;6.126;2022-08-01T11:18:31;11.83;;;11.23;;
12908;SDS011;6522;49.622;6.126;2022-08-01T11:21:18;12.33;;;11.73;;
12908;SDS011;6522;49.622;6.126;2022-08-01T11:24:05;12.30;;;11.70;;
12908;SDS011;6522;49.622;6.126;2022-08-01T11:32:56;12.10;;;11.40;;
12908;SDS011;6522;49.622;6.126;2022-08-01T11:41:44;12.20;;;11.50;;
12908;SDS011;6522;49.622;6.126;2022-08-01T11:44:33;10.40;;;9.80;;
12908;SDS011;6522;49.622;6.126;2022-08-01T11:47:18;12.57;;;11.90;;
12908;SDS011;6522;49.622;6.126;2022-08-01T11:50:05;12.70;;;12.10;;
12908;SDS011;6522;49.622;6.126;2022-08-01T11:52:56;13.20;;;12.60;;
12908;SDS011;6522;49.622;6.126;2022-08-01T11:55:43;13.60;;;12.90;;
12908;SDS011;6522;49.622;6.126;2022-08-01T11:58:26;13.63;;;12.93;;
12908;SDS011;6522;49.622;6.126;2022-08-01T12:01:13;13.67;;;12.97;;
12908;SDS011;6522;49.622;6.126;2022-08-01T12:03:59;14.20;;;13.50;;
12908;SDS011;6522;49.622;6.126;2022-08-01T12:06:46;14.57;;;13.87;;
12908;SDS011;6522;49.622;6.126;2022-08-01T12:09:32;14.10;;;13.40;;
12908;SDS011;6522;49.622;6.126;2022-08-01T12:12:19;12.20;;;11.60;;
12908;SDS011;6522;49.622;6.126;2022-08-01T12:15:07;14.40;;;13.70;;
12908;SDS011;6522;49.622;6.126;2022-08-01T12:17:56;13.77;;;13.07;;
12908;SDS011;6522;49.622;6.126;2022-08-01T12:20:43;14.40;;;13.70;;
12908;SDS011;6522;49.622;6.126;2022-08-01T12:23:29;12.00;;;11.40;;
12908;SDS011;6522;49.622;6.126;2022-08-01T12:26:16;14.10;;;13.40;;
12908;SDS011;6522;49.622;6.126;2022-08-01T12:29:02;14.50;;;13.70;;
12908;SDS011;6522;49.622;6.126;2022-08-01T12:31:49;11.90;;;11.30;;
12908;SDS011;6522;49.622;6.126;2022-08-01T12:34:36;14.07;;;13.37;;
12908;SDS011;6522;49.622;6.126;2022-08-01T12:37:23;13.60;;;13.00;;
12908;SDS011;6522;49.622;6.126;2022-08-01T12:40:10;13.80;;;13.10;;
12908;SDS011;6522;49.622;6.126;2022-08-01T12:43:00;13.40;;;12.80;;
12908;SDS011;6522;49.622;6.126;2022-08-01T12:45:43;14.00;;;13.27;;
12908;SDS011;6522;49.622;6.126;2022-08-01T12:48:30;14.10;;;13.30;;
12908;SDS011;6522;49.622;6.126;2022-08-01T12:51:17;13.37;;;12.77;;
12908;SDS011;6522;49.622;6.126;2022-08-01T12:54:03;14.30;;;13.40;;
12908;SDS011;6522;49.622;6.126;2022-08-01T12:56:51;11.60;;;11.00;;
12908;SDS011;6522;49.622;6.126;2022-08-01T12:59:37;11.80;;;11.20;;
12908;SDS011;6522;49.622;6.126;2022-08-01T13:02:31;14.00;;;13.30;;
12908;SDS011;6522;49.622;6.126;2022-08-01T13:05:11;13.43;;;12.83;;
12908;SDS011;6522;49.622;6.126;2022-08-01T13:07:57;13.80;;;13.20;;
12908;SDS011;6522;49.622;6.126;2022-08-01T13:10:44;14.47;;;13.67;;
12908;SDS011;6522;49.622;6.126;2022-08-01T13:13:38;13.87;;;13.27;;
12908;SDS011;6522;49.622;6.126;2022-08-01T13:16:24;14.10;;;13.50;;
12908;SDS011;6522;49.622;6.126;2022-08-01T13:19:10;14.50;;;13.80;;
12908;SDS011;6522;49.622;6.126;2022-08-01T13:21:57;15.10;;;14.40;;
12908;SDS011;6522;49.622;6.126;2022-08-01T13:24:43;15.37;;;14.60;;
12908;SDS011;6522;49.622;6.126;2022-08-01T13:27:30;15.30;;;14.60;;
12908;SDS011;6522;49.622;6.126;2022-08-01T13:30:18;15.17;;;14.47;;
12908;SDS011;6522;49.622;6.126;2022-08-01T13:33:03;14.17;;;13.57;;
12908;SDS011;6522;49.622;6.126;2022-08-01T13:35:51;15.10;;;14.40;;
12908;SDS011;6522;49.622;6.126;2022-08-01T13:38:37;14.60;;;13.90;;
12908;SDS011;6522;49.622;6.126;2022-08-01T13:41:42;14.77;;;13.97;;
12908;SDS011;6522;49.622;6.126;2022-08-01T13:44:29;14.80;;;14.10;;
12908;SDS011;6522;49.622;6.126;2022-08-01T13:47:15;15.07;;;14.37;;
12908;SDS011;6522;49.622;6.126;2022-08-01T13:50:03;15.30;;;14.60;;
12908;SDS011;6522;49.622;6.126;2022-08-01T13:52:49;14.50;;;13.90;;
12908;SDS011;6522;49.622;6.126;2022-08-01T13:55:36;13.80;;;13.10;;
12908;SDS011;6522;49.622;6.126;2022-08-01T13:58:23;16.17;;;15.47;;
12908;SDS011;6522;49.622;6.126;2022-08-01T14:01:09;15.30;;;14.60;;
12908;SDS011;6522;49.622;6.126;2022-08-01T14:03:57;16.00;;;15.20;;
12908;SDS011;6522;49.622;6.126;2022-08-01T14:06:43;15.53;;;14.83;;
12908;SDS011;6522;49.622;6.126;2022-08-01T14:09:30;15.87;;;15.17;;
12908;SDS011;6522;49.622;6.126;2022-08-01T14:12:17;14.57;;;13.87;;
12908;SDS011;6522;49.622;6.126;2022-08-01T14:15:03;14.33;;;13.63;;
12908;SDS011;6522;49.622;6.126;2022-08-01T14:17:51;14.07;;;13.47;;
12908;SDS011;6522;49.622;6.126;2022-08-01T14:20:37;11.60;;;11.00;;
12908;SDS011;6522;49.622;6.126;2022-08-01T14:23:24;15.70;;;14.90;;
12908;SDS011;6522;49.622;6.126;2022-08-01T14:26:11;15.70;;;15.00;;
12908;SDS011;6522;49.622;6.126;2022-08-01T14:28:57;15.90;;;15.20;;
12908;SDS011;6522;49.622;6.126;2022-08-01T14:31:44;15.53;;;14.83;;
12908;SDS011;6522;49.622;6.126;2022-08-01T14:34:30;13.85;;;13.15;;
12908;SDS011;6522;49.622;6.126;2022-08-01T14:37:17;15.80;;;15.10;;
12908;SDS011;6522;49.622;6.126;2022-08-01T14:40:05;16.17;;;15.47;;
12908;SDS011;6522;49.622;6.126;2022-08-01T14:42:51;13.80;;;13.10;;
12908;SDS011;6522;49.622;6.126;2022-08-01T14:45:38;16.17;;;15.47;;
12908;SDS011;6522;49.622;6.126;2022-08-01T14:48:24;16.03;;;15.33;;
12908;SDS011;6522;49.622;6.126;2022-08-01T14:51:11;16.43;;;15.63;;
12908;SDS011;6522;49.622;6.126;2022-08-01T14:53:58;16.37;;;15.67;;
12908;SDS011;6522;49.622;6.126;2022-08-01T14:56:45;16.90;;;16.10;;
12908;SDS011;6522;49.622;6.126;2022-08-01T14:59:31;16.00;;;15.30;;
12908;SDS011;6522;49.622;6.126;2022-08-01T15:02:18;15.97;;;15.27;;
12908;SDS011;6522;49.622;6.126;2022-08-01T15:05:05;16.27;;;15.47;;
12908;SDS011;6522;49.622;6.126;2022-08-01T15:07:52;16.03;;;15.23;;
12908;SDS011;6522;49.622;6.126;2022-08-01T15:10:38;16.20;;;15.50;;
12908;SDS011;6522;49.622;6.126;2022-08-01T15:13:25;13.50;;;12.80;;
12908;SDS011;6522;49.622;6.126;2022-08-01T15:16:12;16.10;;;15.40;;
12908;SDS011;6522;49.622;6.126;2022-08-01T15:18:59;13.40;;;12.60;;
12908;SDS011;6522;49.622;6.126;2022-08-01T15:21:45;15.70;;;15.00;;
12908;SDS011;6522;49.622;6.126;2022-08-01T15:24:32;15.20;;;14.50;;
12908;SDS011;6522;49.622;6.126;2022-08-01T15:27:19;15.40;;;14.70;;
12908;SDS011;6522;49.622;6.126;2022-08-01T15:30:06;14.53;;;13.83;;
12908;SDS011;6522;49.622;6.126;2022-08-01T15:32:52;14.80;;;14.10;;
12908;SDS011;6522;49.622;6.126;2022-08-01T15:35:39;14.10;;;13.50;;
12908;SDS011;6522;49.622;6.126;2022-08-01T15:38:26;13.30;;;12.60;;
12908;SDS011;6522;49.622;6.126;2022-08-01T15:41:13;15.93;;;15.13;;
12908;SDS011;6522;49.622;6.126;2022-08-01T15:44:00;15.80;;;15.10;;
12908;SDS011;6522;49.622;6.126;2022-08-01T15:46:47;15.60;;;14.90;;
12908;SDS011;6522;49.622;6.126;2022-08-01T15:49:34;15.30;;;14.60;;
12908;SDS011;6522;49.622;6.126;2022-08-01T15:52:20;15.40;;;14.70;;
12908;SDS011;6522;49.622;6.126;2022-08-01T15:55:07;14.80;;;14.00;;
12908;SDS011;6522;49.622;6.126;2022-08-01T15:57:54;15.53;;;14.83;;
12908;SDS011;6522;49.622;6.126;2022-08-01T16:00:40;15.07;;;14.27;;
12908;SDS011;6522;49.622;6.126;2022-08-01T16:03:27;15.40;;;14.70;;
12908;SDS011;6522;49.622;6.126;2022-08-01T16:06:14;15.60;;;14.60;;
12908;SDS011;6522;49.622;6.126;2022-08-01T16:09:00;15.03;;;14.33;;
12908;SDS011;6522;49.622;6.126;2022-08-01T16:11:47;14.50;;;13.90;;
12908;SDS011;6522;49.622;6.126;2022-08-01T16:14:34;14.50;;;13.80;;
12908;SDS011;6522;49.622;6.126;2022-08-01T16:17:20;15.23;;;14.33;;
12908;SDS011;6522;49.622;6.126;2022-08-01T16:20:07;14.90;;;14.20;;
12908;SDS011;6522;49.622;6.126;2022-08-01T16:22:54;14.80;;;14.10;;
12908;SDS011;6522;49.622;6.126;2022-08-01T16:25:41;15.10;;;14.40;;
12908;SDS011;6522;49.622;6.126;2022-08-01T16:28:28;14.33;;;13.70;;
12908;SDS011;6522;49.622;6.126;2022-08-01T16:31:15;14.20;;;13.60;;
12908;SDS011;6522;49.622;6.126;2022-08-01T16:34:02;14.80;;;14.10;;
12908;SDS011;6522;49.622;6.126;2022-08-01T16:36:49;14.73;;;14.03;;
12908;SDS011;6522;49.622;6.126;2022-08-01T16:39:36;14.87;;;14.17;;
12908;SDS011;6522;49.622;6.126;2022-08-01T16:42:23;14.80;;;14.10;;
12908;SDS011;6522;49.622;6.126;2022-08-01T16:45:10;15.23;;;14.53;;
12908;SDS011;6522;49.622;6.126;2022-08-01T16:47:57;15.10;;;14.40;;
12908;SDS011;6522;49.622;6.126;2022-08-01T16:50:44;12.50;;;11.90;;
12908;SDS011;6522;49.622;6.126;2022-08-01T16:53:31;14.80;;;14.10;;
12908;SDS011;6522;49.622;6.126;2022-08-01T16:56:17;14.90;;;14.20;;
12908;SDS011;6522;49.622;6.126;2022-08-01T16:59:04;12.70;;;12.00;;
12908;SDS011;6522;49.622;6.126;2022-08-01T17:01:51;14.03;;;13.43;;
12908;SDS011;6522;49.622;6.126;2022-08-01T17:04:37;14.47;;;13.77;;
12908;SDS011;6522;49.622;6.126;2022-08-01T17:07:24;14.30;;;13.60;;